TimeCDT,TemperatureF,Dew PointF,Humidity,Sea Level PressureIn,VisibilityMPH,Wind Direction,Wind SpeedMPH,Gust SpeedMPH,PrecipitationIn,Events,Conditions,WindDirDegrees,DateUTC
12:15 AM,51.8,19.4,28,30.22,10.0,SSE,13.8,-,N/A,,Clear,160,2013-03-27 05:15:00
12:35 AM,51.8,19.4,28,30.22,10.0,South,11.5,-,N/A,,Clear,170,2013-03-27 05:35:00
12:55 AM,51.8,19.4,28,30.22,10.0,South,12.7,-,N/A,,Clear,170,2013-03-27 05:55:00
1:15 AM,51.8,19.4,28,30.21,10.0,South,11.5,-,N/A,,Clear,180,2013-03-27 06:15:00
1:35 AM,50.0,19.4,30,30.21,10.0,South,9.2,-,N/A,,Clear,180,2013-03-27 06:35:00
1:55 AM,48.2,19.4,32,30.20,10.0,South,5.8,-,N/A,,Clear,180,2013-03-27 06:55:00
2:15 AM,46.4,21.2,37,30.19,10.0,South,6.9,-,N/A,,Clear,190,2013-03-27 07:15:00
2:35 AM,48.2,23.0,37,30.19,10.0,South,9.2,-,N/A,,Clear,190,2013-03-27 07:35:00
2:55 AM,48.2,23.0,37,30.18,10.0,South,10.4,16.1,N/A,,Clear,180,2013-03-27 07:55:00
3:15 AM,48.2,26.6,43,30.17,10.0,South,10.4,-,N/A,,Clear,180,2013-03-27 08:15:00
3:35 AM,48.2,30.2,50,30.17,10.0,South,12.7,16.1,N/A,,Clear,180,2013-03-27 08:35:00
3:55 AM,50.0,32.0,50,30.17,10.0,SSW,12.7,20.7,N/A,,Clear,200,2013-03-27 08:55:00
4:15 AM,50.0,32.0,50,30.17,10.0,SSW,13.8,-,N/A,,Clear,200,2013-03-27 09:15:00
4:35 AM,50.0,32.0,50,30.17,10.0,SSW,11.5,-,N/A,,Clear,200,2013-03-27 09:35:00
4:55 AM,50.0,32.0,50,30.17,10.0,South,15.0,20.7,N/A,,Clear,190,2013-03-27 09:55:00
5:15 AM,48.2,32.0,54,30.16,10.0,South,15.0,20.7,N/A,,Clear,190,2013-03-27 10:15:00
5:35 AM,48.2,32.0,54,30.16,10.0,South,16.1,20.7,N/A,,Clear,180,2013-03-27 10:35:00
5:55 AM,46.4,32.0,57,30.17,10.0,South,11.5,20.7,N/A,,Clear,180,2013-03-27 10:55:00
6:15 AM,46.4,32.0,57,30.16,10.0,South,11.5,-,N/A,,Clear,180,2013-03-27 11:15:00
6:35 AM,46.4,32.0,57,30.16,10.0,South,13.8,19.6,N/A,,Clear,170,2013-03-27 11:35:00
6:55 AM,46.4,32.0,57,30.16,10.0,South,13.8,-,N/A,,Clear,170,2013-03-27 11:55:00
7:15 AM,44.6,32.0,61,30.17,10.0,South,16.1,20.7,N/A,,Clear,180,2013-03-27 12:15:00
7:35 AM,44.6,32.0,61,30.17,10.0,South,13.8,23.0,N/A,,Clear,170,2013-03-27 12:35:00
7:55 AM,44.6,32.0,61,30.18,10.0,South,12.7,-,N/A,,Clear,180,2013-03-27 12:55:00
8:15 AM,44.6,33.8,66,30.18,10.0,South,15.0,21.9,N/A,,Clear,180,2013-03-27 13:15:00
8:35 AM,46.4,33.8,62,30.19,10.0,South,11.5,21.9,N/A,,Clear,180,2013-03-27 13:35:00
8:55 AM,48.2,35.6,62,30.20,10.0,South,16.1,26.5,N/A,,Clear,180,2013-03-27 13:55:00
9:15 AM,50.0,35.6,58,30.21,10.0,South,23.0,26.5,N/A,,Clear,180,2013-03-27 14:15:00
9:35 AM,51.8,35.6,54,30.21,10.0,South,16.1,25.3,N/A,,Clear,190,2013-03-27 14:35:00
9:55 AM,51.8,37.4,58,30.22,10.0,South,19.6,25.3,N/A,,Clear,190,2013-03-27 14:55:00
10:15 AM,53.6,37.4,54,30.22,10.0,South,19.6,27.6,N/A,,Clear,190,2013-03-27 15:15:00
10:35 AM,55.4,37.4,51,30.22,10.0,South,20.7,27.6,N/A,,Clear,190,2013-03-27 15:35:00
10:55 AM,55.4,37.4,51,30.22,10.0,South,20.7,27.6,N/A,,Clear,180,2013-03-27 15:55:00
11:15 AM,57.2,37.4,48,30.22,10.0,South,21.9,28.8,N/A,,Clear,180,2013-03-27 16:15:00
11:35 AM,59.0,37.4,45,30.21,10.0,South,20.7,26.5,N/A,,Clear,170,2013-03-27 16:35:00
11:55 AM,60.8,37.4,42,30.21,10.0,South,20.7,29.9,N/A,,Clear,190,2013-03-27 16:55:00
12:15 PM,60.8,37.4,42,30.20,10.0,South,20.7,28.8,N/A,,Clear,180,2013-03-27 17:15:00
12:35 PM,62.6,37.4,39,30.20,10.0,South,17.3,26.5,N/A,,Clear,180,2013-03-27 17:35:00
12:55 PM,62.6,37.4,39,30.19,10.0,South,17.3,25.3,N/A,,Clear,190,2013-03-27 17:55:00
1:15 PM,64.4,37.4,37,30.18,10.0,South,21.9,27.6,N/A,,Clear,180,2013-03-27 18:15:00
1:35 PM,64.4,37.4,37,30.17,10.0,South,18.4,26.5,N/A,,Clear,170,2013-03-27 18:35:00
1:55 PM,68.0,37.4,33,30.16,10.0,South,20.7,28.8,N/A,,Clear,170,2013-03-27 18:55:00
2:15 PM,68.0,37.4,33,30.15,10.0,South,18.4,24.2,N/A,,Clear,180,2013-03-27 19:15:00
2:35 PM,68.0,37.4,33,30.14,10.0,South,17.3,25.3,N/A,,Clear,170,2013-03-27 19:35:00
2:55 PM,69.8,37.4,31,30.14,10.0,South,18.4,27.6,N/A,,Clear,190,2013-03-27 19:55:00
3:15 PM,69.8,37.4,31,30.13,10.0,South,16.1,24.2,N/A,,Clear,190,2013-03-27 20:15:00
3:35 PM,69.8,39.2,33,30.11,10.0,South,15.0,26.5,N/A,,Clear,170,2013-03-27 20:35:00
3:55 PM,71.6,39.2,31,30.10,10.0,South,21.9,-,N/A,,Clear,180,2013-03-27 20:55:00
4:15 PM,69.8,39.2,33,30.10,10.0,South,19.6,27.6,N/A,,Clear,190,2013-03-27 21:15:00
4:35 PM,71.6,39.2,31,30.09,10.0,South,13.8,26.5,N/A,,Clear,190,2013-03-27 21:35:00
4:55 PM,71.6,39.2,31,30.09,10.0,SSW,17.3,23.0,N/A,,Clear,200,2013-03-27 21:55:00
5:15 PM,71.6,39.2,31,30.09,10.0,South,16.1,24.2,N/A,,Clear,170,2013-03-27 22:15:00
5:35 PM,69.8,41.0,35,30.09,10.0,South,16.1,25.3,N/A,,Clear,180,2013-03-27 22:35:00
5:55 PM,69.8,41.0,35,30.08,10.0,South,19.6,26.5,N/A,,Clear,180,2013-03-27 22:55:00
6:15 PM,69.8,41.0,35,30.08,10.0,South,16.1,23.0,N/A,,Clear,190,2013-03-27 23:15:00
6:35 PM,68.0,41.0,37,30.08,10.0,South,18.4,25.3,N/A,,Clear,190,2013-03-27 23:35:00
6:55 PM,68.0,41.0,37,30.09,10.0,South,12.7,23.0,N/A,,Clear,180,2013-03-27 23:55:00
7:15 PM,66.2,41.0,40,30.09,10.0,SSE,19.6,26.5,N/A,,Clear,160,2013-03-28 00:15:00
7:35 PM,64.4,41.0,42,30.09,10.0,South,18.4,25.3,N/A,,Clear,170,2013-03-28 00:35:00
7:55 PM,62.6,42.8,48,30.09,10.0,South,17.3,26.5,N/A,,Clear,170,2013-03-28 00:55:00
8:15 PM,62.6,42.8,48,30.10,10.0,SSE,18.4,-,N/A,,Clear,160,2013-03-28 01:15:00
8:35 PM,62.6,42.8,48,30.10,10.0,South,12.7,23.0,N/A,,Clear,180,2013-03-28 01:35:00
8:55 PM,60.8,42.8,52,30.11,10.0,South,15.0,-,N/A,,Clear,170,2013-03-28 01:55:00
9:15 PM,60.8,42.8,52,30.12,10.0,South,17.3,23.0,N/A,,Clear,170,2013-03-28 02:15:00
9:35 PM,60.8,42.8,52,30.13,10.0,South,15.0,25.3,N/A,,Clear,180,2013-03-28 02:35:00
9:55 PM,59.0,44.6,59,30.13,10.0,South,15.0,20.7,N/A,,Clear,170,2013-03-28 02:55:00
10:15 PM,59.0,44.6,59,30.14,10.0,South,18.4,23.0,N/A,,Clear,170,2013-03-28 03:15:00
10:35 PM,59.0,44.6,59,30.14,10.0,South,13.8,18.4,N/A,,Clear,180,2013-03-28 03:35:00
10:55 PM,57.2,44.6,63,30.15,10.0,South,12.7,19.6,N/A,,Clear,170,2013-03-28 03:55:00
11:15 PM,57.2,44.6,63,30.15,10.0,South,12.7,19.6,N/A,,Clear,180,2013-03-28 04:15:00
11:35 PM,55.4,44.6,67,30.15,10.0,South,12.7,-,N/A,,Clear,180,2013-03-28 04:35:00
11:55 PM,55.4,44.6,67,30.15,10.0,South,11.5,-,N/A,,Clear,180,2013-03-28 04:55:00